Silia — WDG2034 — position and weather

sailwx.info

Track history (hours):
 
Tides and Currents Weather Stations Pressure Air Temp Water Temp Dewpoint Dewpoint Depression Visibility Wind Speed Wind Dir Waves Ship Positions

Silia

Owner: greger pacific marine, napa, CA. More information available from US FCC via Universal Licensing System and Coast Guard Vessel Documentation Center.

Last reported at 2015-Jul-06 21:19 UTC. Time now 2015-Jul-07 00:21 UTC.
Position N 37°40' W 122°23'.

Length 17 m; draft 3 m.

Type: Tug. MMSI: 367511460.

Date/timePositionNaut miles runAvg speedWind from/ knotsBaromVisibWave heightAir tempDewpointWater temp
2015-Jul-06 21:19N 37°40' W 122°23'0 0.6
2015-Jul-06 20:33N 37°40' W 122°22'0 0.3
2015-Jul-06 19:33N 37°40' W 122°23'0 0.0
2015-Jul-06 18:33N 37°40' W 122°23'0 0.0
2015-Jul-06 17:33N 37°40' W 122°23'0 0.0
2015-Jul-06 16:33N 37°40' W 122°23'1 0.8
2015-Jul-06 15:33N 37°41' W 122°22'0 0.2
2015-Jul-06 14:33N 37°40' W 122°22'0 0.3
2015-Jul-06 13:33N 37°41' W 122°22'3 3.3
2015-Jul-06 12:33N 37°44' W 122°21'4 3.7
2015-Jul-06 11:33N 37°48' W 122°21'4 4.5
2015-Jul-06 10:33N 37°47' W 122°15'0 0.0
2015-Jul-05 06:33N 37°47' W 122°16'6 5.9
2015-Jul-05 05:33N 37°46' W 122°23'3 2.7
2015-Jul-05 04:33N 37°49' W 122°24'0 0.3
2015-Jul-05 03:33N 37°49' W 122°25'3 2.7
2015-Jul-05 02:33N 37°47' W 122°23'1 0.5
2015-Jul-05 01:33N 37°46' W 122°23'0 0.0
2015-Jul-05 00:33N 37°46' W 122°23'4 4.4
2015-Jul-04 23:33N 37°51' W 122°25'8 8.4
2015-Jul-04 22:33N 37°59' W 122°25'10 7.2
2015-Jul-04 21:10N 38°04' W 122°14'  
Track history (hours):
 
Tides and Currents Weather Stations Pressure Air Temp Water Temp Dewpoint Dewpoint Depression Visibility Wind Speed Wind Dir Waves Ship Positions

Silia

Owner: greger pacific marine, napa, CA. More information available from US FCC via Universal Licensing System and Coast Guard Vessel Documentation Center.

Last reported at 2015-Jul-06 21:19 UTC. Time now 2015-Jul-07 00:21 UTC.
Position N 37°40' W 122°23'.

Length 17 m; draft 3 m.

Type: Tug. MMSI: 367511460.

Date/timePositionNaut miles runAvg speedWind from/ knotsBaromVisibWave heightAir tempDewpointWater temp
2015-Jul-06 21:19N 37°40' W 122°23'0 0.6
2015-Jul-06 20:33N 37°40' W 122°22'0 0.3
2015-Jul-06 19:33N 37°40' W 122°23'0 0.0
2015-Jul-06 18:33N 37°40' W 122°23'0 0.0
2015-Jul-06 17:33N 37°40' W 122°23'0 0.0
2015-Jul-06 16:33N 37°40' W 122°23'1 0.8
2015-Jul-06 15:33N 37°41' W 122°22'0 0.2
2015-Jul-06 14:33N 37°40' W 122°22'0 0.3
2015-Jul-06 13:33N 37°41' W 122°22'3 3.3
2015-Jul-06 12:33N 37°44' W 122°21'4 3.7
2015-Jul-06 11:33N 37°48' W 122°21'4 4.5
2015-Jul-06 10:33N 37°47' W 122°15'0 0.0
2015-Jul-05 06:33N 37°47' W 122°16'6 5.9
2015-Jul-05 05:33N 37°46' W 122°23'3 2.7
2015-Jul-05 04:33N 37°49' W 122°24'0 0.3
2015-Jul-05 03:33N 37°49' W 122°25'3 2.7
2015-Jul-05 02:33N 37°47' W 122°23'1 0.5
2015-Jul-05 01:33N 37°46' W 122°23'0 0.0
2015-Jul-05 00:33N 37°46' W 122°23'4 4.4
2015-Jul-04 23:33N 37°51' W 122°25'8 8.4
2015-Jul-04 22:33N 37°59' W 122°25'10 7.2
2015-Jul-04 21:10N 38°04' W 122°14'  

Dump ship's entire track history